Time;durP1;ratioP1;P1;durP2;ratioP2;P2;SDS_P1;SDS_P2;PMS_P1;PMS_P2;Temp;Humidity;BMP_temperature;BMP_pressure;BME280_temperature;BME280_humidity;BME280_pressure;Samples;Min_cycle;Max_cycle;Signal;HPM_P1;HPM_P2
2023/08/17 00:01:17;;;;;;;5.40;2.80;;;;;;;22.38;76.72;100897.46;84126;284;137867;-69
2023/08/17 00:03:19;;;;;;;2.70;2.60;;;;;;;22.32;77.19;100895.83;84212;284;22553;-62
2023/08/17 00:05:20;;;;;;;3.00;2.80;;;;;;;22.27;77.56;100895.17;84046;283;136870;-60
2023/08/17 00:07:22;;;;;;;6.60;3.40;;;;;;;22.26;77.59;100894.34;83987;285;352089;-60
2023/08/17 00:09:25;;;;;;;3.10;2.90;;;;;;;22.25;77.73;100894.30;84146;284;138072;-64
2023/08/17 00:11:27;;;;;;;5.60;3.20;;;;;;;22.22;77.84;100891.61;84210;284;25298;-66
2023/08/17 00:13:29;;;;;;;3.10;2.90;;;;;;;22.21;77.89;100894.30;84187;283;136757;-60
2023/08/17 00:15:32;;;;;;;3.70;3.00;;;;;;;22.23;77.93;100891.61;84268;283;25226;-59
2023/08/17 00:17:34;;;;;;;2.50;2.40;;;;;;;22.24;77.90;100893.16;84043;273;136620;-59
2023/08/17 00:19:36;;;;;;;3.50;3.00;;;;;;;22.22;78.03;100895.50;84243;283;24042;-60
2023/08/17 00:21:38;;;;;;;3.30;2.80;;;;;;;22.20;78.32;100897.81;84122;284;137146;-61
2023/08/17 00:23:39;;;;;;;6.20;3.00;;;;;;;22.23;78.23;100897.33;84331;283;23836;-56
2023/08/17 00:25:43;;;;;;;5.50;3.20;;;;;;;22.18;78.24;100888.58;84193;284;137135;-58
2023/08/17 00:27:45;;;;;;;3.30;2.90;;;;;;;22.25;78.20;100900.13;84596;284;25199;-59
2023/08/17 00:29:46;;;;;;;3.00;2.90;;;;;;;22.21;78.30;100902.66;84558;283;136968;-59
2023/08/17 00:31:48;;;;;;;2.70;2.50;;;;;;;22.21;78.44;100898.80;84292;283;22569;-58
2023/08/17 00:33:50;;;;;;;5.30;2.90;;;;;;;22.23;78.16;100904.05;84027;285;136469;-64
2023/08/17 00:35:52;;;;;;;3.10;2.90;;;;;;;22.22;78.26;100905.61;84265;284;25255;-60
2023/08/17 00:37:54;;;;;;;3.00;2.80;;;;;;;22.20;78.38;100902.33;84249;285;136250;-58
2023/08/17 00:39:55;;;;;;;4.50;4.00;;;;;;;22.18;78.49;100903.88;84220;285;22740;-61
2023/08/17 00:41:58;;;;;;;3.70;3.00;;;;;;;22.14;78.52;100904.31;84214;284;137174;-65
2023/08/17 00:44:00;;;;;;;3.30;2.60;;;;;;;22.15;78.58;100906.55;84305;283;25304;-74
2023/08/17 00:46:02;;;;;;;3.30;3.00;;;;;;;22.15;78.25;100904.70;84321;283;137200;-61
2023/08/17 00:48:07;;;;;;;5.20;3.10;;;;;;;22.14;78.44;100906.27;84220;285;137203;-61
2023/08/17 00:50:11;;;;;;;3.80;2.60;;;;;;;22.14;78.40;100903.92;84313;283;22554;-60
2023/08/17 00:52:13;;;;;;;4.80;2.70;;;;;;;22.14;78.38;100904.15;84141;283;137339;-61
2023/08/17 00:54:23;;;;;;;2.40;2.20;;;;;;;22.09;78.48;100909.63;84158;284;23725;-59
2023/08/17 00:56:26;;;;;;;3.50;2.30;;;;;;;22.10;78.28;100907.95;84134;286;138557;-60
2023/08/17 00:58:28;;;;;;;2.70;2.20;;;;;;;22.13;78.23;100903.33;84323;283;25181;-58
2023/08/17 01:00:31;;;;;;;2.40;2.30;;;;;;;22.18;78.08;100902.96;84056;285;138178;-58
2023/08/17 01:02:34;;;;;;;2.40;2.30;;;;;;;22.17;77.92;100891.31;84299;285;22546;-67
2023/08/17 01:04:36;;;;;;;3.20;3.00;;;;;;;22.21;79.30;100903.09;84139;285;136535;-60
2023/08/17 01:06:40;;;;;;;4.60;2.00;;;;;;;22.15;78.60;100903.39;84194;284;24136;-62
2023/08/17 01:08:44;;;;;;;2.80;2.60;;;;;;;22.06;78.49;100901.50;84106;284;136524;-61
2023/08/17 01:10:55;;;;;;;2.30;2.20;;;;;;;22.03;78.70;100907.70;84237;284;24197;-61
2023/08/17 01:13:24;;;;;;;3.30;2.70;;;;;;;22.03;80.35;100906.60;84050;285;138329;-67
2023/08/17 01:15:36;;;;;;;2.90;2.50;;;;;;;21.98;81.35;100907.52;84161;284;23011;-66
2023/08/17 01:17:57;;;;;;;3.10;2.90;;;;;;;21.93;80.51;100907.78;84226;283;137214;-59
2023/08/17 01:20:04;;;;;;;7.50;3.30;;;;;;;21.84;82.01;100914.23;84377;283;22606;-59
2023/08/17 01:22:08;;;;;;;3.40;3.10;;;;;;;21.78;81.86;100915.98;84338;284;24097;-60
2023/08/17 01:24:14;;;;;;;3.60;2.90;;;;;;;21.78;81.61;100915.17;84231;283;138136;-58
2023/08/17 01:26:16;;;;;;;3.20;3.00;;;;;;;21.77;82.64;100919.00;84352;272;22564;-61
2023/08/17 01:28:18;;;;;;;2.60;2.40;;;;;;;21.64;84.09;100917.19;84134;284;138676;-60
2023/08/17 01:30:20;;;;;;;3.30;3.00;;;;;;;21.65;84.72;100915.27;84238;284;25338;-61
2023/08/17 01:32:35;;;;;;;2.60;2.50;;;;;;;21.69;84.39;100917.96;83840;286;138493;-62
2023/08/17 01:34:47;;;;;;;3.30;3.00;;;;;;;21.66;84.89;100920.40;84144;284;22647;-60
2023/08/17 01:36:55;;;;;;;4.10;3.10;;;;;;;21.57;85.45;100917.08;83919;284;137034;-59
2023/08/17 01:38:59;;;;;;;5.00;2.80;;;;;;;21.54;86.06;100918.22;84030;285;22561;-63
2023/08/17 01:41:03;;;;;;;4.00;3.70;;;;;;;21.65;86.23;100916.16;84189;283;138404;-64
2023/08/17 01:43:06;;;;;;;5.10;3.00;;;;;;;21.73;85.99;100916.55;84211;284;25195;-59
2023/08/17 01:45:08;;;;;;;3.20;2.90;;;;;;;21.81;85.62;100915.30;84121;283;138377;-61
2023/08/17 01:47:13;;;;;;;3.30;3.00;;;;;;;21.82;85.53;100915.65;84266;283;25141;-66
2023/08/17 01:49:15;;;;;;;2.40;2.30;;;;;;;21.74;84.94;100917.06;84174;271;138365;-60
2023/08/17 01:51:21;;;;;;;3.00;2.90;;;;;;;21.60;85.28;100914.34;84080;285;22569;-62
2023/08/17 01:53:23;;;;;;;3.10;2.80;;;;;;;21.47;85.83;100916.14;84155;283;137222;-62
2023/08/17 01:55:26;;;;;;;2.90;2.70;;;;;;;21.33;87.82;100912.91;84242;284;24203;-59
2023/08/17 01:57:28;;;;;;;4.00;3.40;;;;;;;21.35;88.46;100915.33;84266;283;139335;-64
2023/08/17 01:59:30;;;;;;;3.60;3.40;;;;;;;21.44;88.11;100917.55;84172;284;22550;-63
2023/08/17 02:01:32;;;;;;;3.00;2.70;;;;;;;21.37;88.36;100915.20;84116;284;137334;-62
2023/08/17 02:03:34;;;;;;;3.60;3.30;;;;;;;21.33;89.01;100920.02;84123;284;25204;-59
2023/08/17 02:05:36;;;;;;;3.60;3.40;;;;;;;21.24;89.29;100920.19;84123;283;137079;-59
2023/08/17 02:07:38;;;;;;;3.60;3.30;;;;;;;21.17;90.51;100924.05;84158;283;26226;-59
2023/08/17 02:09:40;;;;;;;3.00;2.80;;;;;;;21.24;90.84;100922.14;83976;284;138603;-60
2023/08/17 02:11:41;;;;;;;3.50;2.90;;;;;;;21.32;88.59;100923.52;84100;286;25288;-61
2023/08/17 02:13:45;;;;;;;4.70;3.00;;;;;;;21.36;88.96;100924.02;84163;284;137153;-61
2023/08/17 02:15:47;;;;;;;3.00;2.80;;;;;;;21.29;89.61;100927.27;84246;283;22587;-58
2023/08/17 02:17:48;;;;;;;3.60;3.30;;;;;;;21.20;90.52;100924.95;84074;284;137277;-59
2023/08/17 02:19:50;;;;;;;2.90;2.70;;;;;;;21.21;90.46;100928.44;84113;283;22556;-59
2023/08/17 02:21:52;;;;;;;4.40;3.90;;;;;;;21.18;91.09;100926.54;83994;283;137081;-62
2023/08/17 02:23:54;;;;;;;4.20;3.20;;;;;;;21.23;91.26;100928.27;84220;285;23070;-59
2023/08/17 02:25:57;;;;;;;2.90;2.80;;;;;;;21.33;90.68;100930.94;84319;284;138393;-58
2023/08/17 02:28:00;;;;;;;3.20;3.10;;;;;;;21.40;90.71;100930.31;84336;284;25427;-63
2023/08/17 02:30:03;;;;;;;3.60;3.40;;;;;;;21.53;90.08;100933.33;84296;284;136788;-61
2023/08/17 02:32:05;;;;;;;3.00;2.80;;;;;;;21.51;89.82;100933.41;84323;284;138260;-61
2023/08/17 02:34:07;;;;;;;3.40;3.20;;;;;;;21.52;90.10;100934.02;84266;284;25217;-61
2023/08/17 02:36:09;;;;;;;3.30;3.10;;;;;;;21.55;89.90;100936.23;84019;280;137206;-61
2023/08/17 02:38:11;;;;;;;3.20;3.00;;;;;;;21.54;89.73;100939.70;84081;284;25138;-61
2023/08/17 02:40:13;;;;;;;3.30;3.10;;;;;;;21.35;90.25;100939.48;84045;284;137329;-66
2023/08/17 02:42:15;;;;;;;4.30;3.90;;;;;;;21.24;91.32;100938.84;84039;284;22553;-61
2023/08/17 02:44:17;;;;;;;2.90;2.80;;;;;;;21.14;91.64;100936.52;84111;283;138811;-62
2023/08/17 02:46:18;;;;;;;3.70;3.60;;;;;;;21.11;92.99;100936.70;84173;272;24132;-60
2023/08/17 02:48:22;;;;;;;3.20;2.90;;;;;;;21.06;92.90;100936.23;84189;284;137217;-61
2023/08/17 02:50:24;;;;;;;3.90;3.60;;;;;;;20.92;93.92;100936.70;84376;283;22550;-60
2023/08/17 02:52:26;;;;;;;4.30;3.90;;;;;;;20.80;95.36;100941.73;84113;282;138449;-60
2023/08/17 02:54:28;;;;;;;4.10;3.90;;;;;;;20.75;96.70;100941.70;84094;281;22671;-60
2023/08/17 02:56:29;;;;;;;6.00;4.00;;;;;;;20.76;97.08;100938.23;84107;284;138438;-61
2023/08/17 02:58:32;;;;;;;4.10;3.30;;;;;;;20.78;97.04;100937.36;84170;284;22556;-64
2023/08/17 03:00:34;;;;;;;4.70;4.30;;;;;;;20.74;96.73;100939.99;84048;284;137889;-61
2023/08/17 03:02:36;;;;;;;4.40;4.00;;;;;;;20.60;97.28;100938.14;84241;284;25223;-60
2023/08/17 03:04:38;;;;;;;3.80;3.60;;;;;;;20.47;99.28;100939.05;84067;286;138696;-57
2023/08/17 03:06:40;;;;;;;4.00;3.60;;;;;;;20.45;100.00;100939.98;84107;285;22569;-65
2023/08/17 03:08:41;;;;;;;4.70;4.20;;;;;;;20.38;100.00;100939.73;84093;285;138953;-59
2023/08/17 03:10:45;;;;;;;5.10;4.00;;;;;;;20.30;100.00;100943.23;84315;283;23184;-59
2023/08/17 03:12:47;;;;;;;4.30;3.30;;;;;;;20.26;100.00;100940.64;84081;285;136905;-62
2023/08/17 03:14:49;;;;;;;4.20;3.80;;;;;;;20.30;100.00;100939.77;84227;282;25204;-58
2023/08/17 03:16:51;;;;;;;4.20;3.90;;;;;;;20.50;100.00;100939.11;83982;283;138949;-59
2023/08/17 03:18:53;;;;;;;13.60;11.80;;;;;;;20.71;100.00;100943.09;84078;286;24594;-59
2023/08/17 03:20:55;;;;;;;8.60;7.60;;;;;;;20.91;100.00;100940.91;84023;284;137530;-62
2023/08/17 03:22:58;;;;;;;9.60;8.10;;;;;;;21.22;98.84;100945.42;84159;286;22553;-58
2023/08/17 03:25:01;;;;;;;5.00;4.60;;;;;;;21.56;96.18;100943.46;84327;283;138560;-64
2023/08/17 03:27:03;;;;;;;4.40;4.10;;;;;;;21.94;93.07;100944.20;84355;283;23056;-62
2023/08/17 03:29:04;;;;;;;4.50;4.20;;;;;;;22.33;89.99;100942.59;84198;283;137045;-60
2023/08/17 03:31:10;;;;;;;5.00;4.60;;;;;;;22.67;87.32;100943.99;84136;273;24143;-62
2023/08/17 03:33:13;;;;;;;6.00;3.40;;;;;;;22.95;85.19;100940.66;84207;283;137808;-60
2023/08/17 03:35:15;;;;;;;3.70;3.40;;;;;;;23.25;83.04;100939.20;84319;283;22550;-62
2023/08/17 03:37:17;;;;;;;3.50;3.30;;;;;;;23.49;80.64;100945.96;84194;284;136262;-61
2023/08/17 03:39:19;;;;;;;3.30;3.10;;;;;;;23.68;79.62;100944.20;84315;283;25264;-59
2023/08/17 03:41:23;;;;;;;3.60;3.30;;;;;;;23.93;78.24;100946.80;84179;284;136422;-69
2023/08/17 03:43:26;;;;;;;3.40;3.20;;;;;;;24.25;75.77;100944.30;84187;283;24041;-60
2023/08/17 03:45:30;;;;;;;3.30;3.00;;;;;;;24.53;74.55;100941.92;84174;284;136329;-59
2023/08/17 03:47:32;;;;;;;4.20;3.80;;;;;;;24.90;72.29;100941.44;84349;284;24252;-61
2023/08/17 03:49:35;;;;;;;3.60;3.30;;;;;;;25.31;70.02;100936.45;84078;283;136444;-60
2023/08/17 03:51:37;;;;;;;4.40;4.00;;;;;;;25.59;68.22;100940.86;84128;283;25135;-60
2023/08/17 03:53:38;;;;;;;5.20;4.30;;;;;;;25.88;66.37;100936.77;84076;283;136410;-58
2023/08/17 03:55:48;;;;;;;6.00;4.50;;;;;;;26.08;65.17;100938.45;84207;282;22548;-60
2023/08/17 03:57:50;;;;;;;4.80;4.40;;;;;;;26.16;64.58;100939.73;84039;283;136205;-60
2023/08/17 03:59:52;;;;;;;6.60;4.60;;;;;;;26.32;63.79;100939.84;84058;284;24140;-58
2023/08/17 04:01:54;;;;;;;4.30;3.90;;;;;;;26.54;62.29;100938.16;83839;284;137671;-64
2023/08/17 04:03:56;;;;;;;4.80;4.20;;;;;;;26.68;60.38;100931.73;83965;285;22551;-60
2023/08/17 04:06:03;;;;;;;4.90;3.90;;;;;;;26.73;59.76;100929.05;84204;284;136623;-61
2023/08/17 04:10:45;;;;;;;4.40;3.80;;;;;;;27.08;58.49;100928.78;82758;306;545848;-58
2023/08/17 04:12:47;;;;;;;4.30;4.00;;;;;;;27.44;56.99;100928.63;83345;293;136768;-59
2023/08/17 04:14:50;;;;;;;3.40;3.20;;;;;;;27.72;55.98;100932.64;83667;292;22555;-61
2023/08/17 04:16:53;;;;;;;2.60;2.50;;;;;;;27.86;54.83;100931.74;83479;293;135710;-59
2023/08/17 04:18:55;;;;;;;4.70;2.50;;;;;;;27.98;53.50;100933.71;83742;290;25238;-62
2023/08/17 04:20:57;;;;;;;3.20;1.80;;;;;;;28.01;52.49;100930.84;83736;288;135528;-61
2023/08/17 04:22:59;;;;;;;3.00;1.80;;;;;;;28.01;52.23;100932.77;84072;288;22754;-57
2023/08/17 04:25:01;;;;;;;1.90;1.80;;;;;;;28.09;52.18;100933.21;83580;284;185576;-57
2023/08/17 04:27:04;;;;;;;1.50;1.40;;;;;;;28.15;51.84;100934.78;83914;285;23707;-59
2023/08/17 04:29:06;;;;;;;2.00;1.80;;;;;;;28.20;51.27;100939.33;83759;285;137055;-60
2023/08/17 04:31:08;;;;;;;2.70;1.60;;;;;;;28.23;51.17;100937.92;83956;285;24610;-61
2023/08/17 04:33:12;;;;;;;5.50;2.40;;;;;;;28.29;50.85;100919.14;83828;285;139608;-61
2023/08/17 04:35:14;;;;;;;4.60;1.60;;;;;;;28.60;49.56;100939.46;83903;285;22584;-61
2023/08/17 04:37:16;;;;;;;2.60;1.20;;;;;;;28.67;49.57;100941.66;83852;285;135930;-60
2023/08/17 04:39:19;;;;;;;3.10;1.90;;;;;;;28.63;49.11;100942.38;83904;287;22650;-60
2023/08/17 04:41:21;;;;;;;4.00;1.60;;;;;;;28.65;49.03;100944.81;83954;286;137038;-63
2023/08/17 04:43:24;;;;;;;1.30;1.30;;;;;;;28.68;49.04;100943.34;84078;286;22658;-62
2023/08/17 04:45:26;;;;;;;4.00;1.50;;;;;;;28.75;49.04;100943.70;83879;286;136205;-59
2023/08/17 04:47:28;;;;;;;3.70;1.40;;;;;;;28.83;48.79;100946.60;83932;285;25829;-60
2023/08/17 04:49:31;;;;;;;1.70;1.50;;;;;;;28.92;48.43;100944.20;83896;284;136877;-59
2023/08/17 04:51:32;;;;;;;1.60;1.50;;;;;;;29.15;47.88;100942.35;84006;284;22641;-61
2023/08/17 04:53:34;;;;;;;2.10;1.70;;;;;;;29.32;47.28;100941.58;83916;285;136826;-60
2023/08/17 04:55:36;;;;;;;3.60;1.60;;;;;;;29.53;47.08;100942.10;83930;285;22563;-59
2023/08/17 04:57:37;;;;;;;2.70;1.60;;;;;;;29.56;46.59;100943.54;83857;285;135985;-61
2023/08/17 04:59:42;;;;;;;1.80;1.40;;;;;;;29.54;46.79;100946.65;83895;286;22504;-58
2023/08/17 05:01:44;;;;;;;1.60;1.40;;;;;;;29.69;46.64;100943.36;83854;285;136091;-59
2023/08/17 05:03:46;;;;;;;2.00;1.30;;;;;;;29.81;46.50;100945.71;83916;287;24071;-60
2023/08/17 05:05:49;;;;;;;2.60;1.30;;;;;;;30.04;45.75;100943.94;83851;286;136205;-59
2023/08/17 05:07:52;;;;;;;2.20;1.40;;;;;;;30.38;44.70;100946.23;84023;286;25145;-58
2023/08/17 05:09:54;;;;;;;1.90;1.40;;;;;;;30.68;44.02;100944.36;83868;285;135885;-60
2023/08/17 05:11:56;;;;;;;4.20;1.80;;;;;;;30.79;43.76;100941.60;84006;285;22727;-59
2023/08/17 05:13:58;;;;;;;2.40;1.60;;;;;;;30.88;43.34;100935.60;83984;285;135780;-63
2023/08/17 05:16:00;;;;;;;2.30;2.10;;;;;;;30.95;43.00;100933.90;83857;285;24775;-60
2023/08/17 05:18:04;;;;;;;1.30;1.20;;;;;;;31.12;42.62;100938.27;86500;285;22553;-60
2023/08/17 05:20:08;;;;;;;2.20;1.80;;;;;;;31.45;42.01;100935.93;84133;285;136867;-61
2023/08/17 05:22:12;;;;;;;2.60;1.80;;;;;;;31.67;41.29;100941.89;84668;285;25137;-62
2023/08/17 05:24:14;;;;;;;2.70;1.10;;;;;;;31.65;40.87;100943.10;84174;276;136390;-61
2023/08/17 05:26:16;;;;;;;3.20;1.90;;;;;;;31.64;40.86;100946.05;83767;286;25234;-62
2023/08/17 05:28:17;;;;;;;3.60;2.00;;;;;;;31.69;41.06;100945.81;83889;284;136624;-62
2023/08/17 05:30:19;;;;;;;2.40;1.60;;;;;;;31.72;40.80;100942.27;83934;285;25164;-61
2023/08/17 05:32:21;;;;;;;1.80;1.30;;;;;;;31.72;40.62;100938.76;83915;285;136061;-62
2023/08/17 05:34:23;;;;;;;1.20;1.10;;;;;;;31.54;40.87;100938.58;83888;286;22756;-74
2023/08/17 05:36:25;;;;;;;1.40;1.30;;;;;;;31.27;41.01;100940.61;83808;284;136188;-72
2023/08/17 05:38:28;;;;;;;5.30;1.60;;;;;;;30.92;42.13;100938.65;83901;285;24167;-73
2023/08/17 05:40:32;;;;;;;1.80;1.60;;;;;;;30.68;42.23;100944.84;83758;286;135496;-73
2023/08/17 05:42:33;;;;;;;2.30;1.20;;;;;;;30.62;42.89;100941.78;83901;286;23913;-58
2023/08/17 05:44:35;;;;;;;1.40;1.30;;;;;;;30.57;42.67;100939.30;83821;285;135761;-60
2023/08/17 05:46:37;;;;;;;1.70;0.90;;;;;;;30.57;43.00;100937.61;86437;284;22569;-60
2023/08/17 05:48:41;;;;;;;1.00;1.00;;;;;;;30.62;43.07;100934.79;83829;285;135923;-61
2023/08/17 05:50:43;;;;;;;1.90;1.00;;;;;;;30.66;43.38;100927.17;86831;284;22279;-61
2023/08/17 05:52:45;;;;;;;1.40;1.30;;;;;;;30.88;43.18;100931.20;84722;283;135889;-62
2023/08/17 05:54:47;;;;;;;1.60;1.40;;;;;;;31.06;42.35;100932.10;83917;284;25085;-60
2023/08/17 05:56:49;;;;;;;3.70;0.80;;;;;;;31.14;41.95;100930.55;83896;286;135630;-61
2023/08/17 05:58:51;;;;;;;1.60;1.30;;;;;;;31.24;42.11;100926.21;83930;285;23745;-62
2023/08/17 06:00:52;;;;;;;1.90;1.30;;;;;;;31.39;41.54;100928.23;83774;286;135394;-59
2023/08/17 06:03:00;;;;;;;1.00;1.00;;;;;;;31.48;41.10;100928.10;83930;285;24103;-61
2023/08/17 06:05:03;;;;;;;0.80;0.80;;;;;;;31.44;41.21;100927.48;83862;285;135895;-62
2023/08/17 06:07:06;;;;;;;2.70;0.80;;;;;;;31.39;41.31;100926.73;84301;284;23055;-58
2023/08/17 06:09:08;;;;;;;1.50;1.40;;;;;;;31.39;41.26;100928.25;83793;286;136713;-60
2023/08/17 06:11:10;;;;;;;1.90;1.10;;;;;;;31.33;41.54;100931.48;83940;286;22602;-61
2023/08/17 06:13:13;;;;;;;2.70;1.60;;;;;;;31.32;41.50;100932.18;83864;284;137322;-60
2023/08/17 06:15:15;;;;;;;3.60;1.80;;;;;;;31.30;41.38;100928.71;83804;284;25316;-61
2023/08/17 06:17:16;;;;;;;6.90;2.20;;;;;;;31.19;41.69;100926.92;83768;286;135493;-65
2023/08/17 06:19:18;;;;;;;0.70;0.60;;;;;;;31.06;42.13;100923.14;83791;287;22558;-59
2023/08/17 06:21:20;;;;;;;2.20;1.10;;;;;;;31.01;41.69;100926.48;83717;287;136301;-56
2023/08/17 06:23:22;;;;;;;1.90;1.30;;;;;;;31.12;41.76;100925.09;83880;286;25275;-62
2023/08/17 06:25:25;;;;;;;2.70;1.10;;;;;;;31.18;41.95;100923.40;83672;287;136287;-62
2023/08/17 06:27:27;;;;;;;2.20;1.00;;;;;;;31.23;41.88;100925.56;83831;287;22553;-60
2023/08/17 06:29:29;;;;;;;2.00;0.80;;;;;;;31.19;41.60;100921.71;83751;288;136510;-61
2023/08/17 06:31:31;;;;;;;1.00;0.70;;;;;;;31.15;41.75;100918.67;83934;286;24142;-59
2023/08/17 06:33:33;;;;;;;4.20;1.10;;;;;;;31.25;41.67;100919.50;83821;287;136144;-60
2023/08/17 06:35:35;;;;;;;3.10;1.20;;;;;;;31.29;41.81;100920.70;83973;287;22610;-66
2023/08/17 06:37:37;;;;;;;4.10;0.80;;;;;;;31.20;40.93;100924.32;83857;286;135978;-60
2023/08/17 06:39:39;;;;;;;1.60;0.50;;;;;;;31.05;40.76;100921.38;83899;288;23886;-62
2023/08/17 06:41:41;;;;;;;1.10;0.40;;;;;;;30.95;40.87;100929.11;83801;286;135964;-57
2023/08/17 06:43:42;;;;;;;1.80;0.60;;;;;;;30.87;40.39;100925.88;83905;286;22595;-56
2023/08/17 06:45:44;;;;;;;2.50;0.50;;;;;;;30.65;41.03;100932.08;83782;287;136731;-58
2023/08/17 06:47:48;;;;;;;1.50;0.50;;;;;;;30.52;40.19;100939.96;86041;287;24283;-60
2023/08/17 06:49:50;;;;;;;3.20;0.50;;;;;;;30.62;39.66;100939.20;84952;286;136349;-63
2023/08/17 06:51:52;;;;;;;10.30;0.60;;;;;;;30.72;38.69;100939.95;83927;288;22587;-59
2023/08/17 06:53:54;;;;;;;0.90;0.20;;;;;;;30.77;38.19;100936.27;83986;283;135684;-62
2023/08/17 06:55:56;;;;;;;0.60;0.20;;;;;;;30.75;37.83;100934.39;84087;286;24176;-63
2023/08/17 06:57:59;;;;;;;1.00;0.30;;;;;;;30.77;38.22;100933.79;83835;288;136978;-61
2023/08/17 07:00:00;;;;;;;0.80;0.30;;;;;;;30.87;38.06;100939.95;83937;288;22555;-62
2023/08/17 07:02:02;;;;;;;1.00;0.50;;;;;;;31.06;38.04;100931.17;83870;287;136763;-62
2023/08/17 07:04:05;;;;;;;0.90;0.40;;;;;;;31.20;37.65;100927.03;83815;287;136658;-60
2023/08/17 07:06:08;;;;;;;2.60;0.20;;;;;;;31.15;37.66;100923.73;84055;287;24290;-58
2023/08/17 07:08:10;;;;;;;1.80;0.10;;;;;;;31.02;36.92;100930.05;83893;287;136496;-59
2023/08/17 07:10:12;;;;;;;2.00;0.10;;;;;;;31.01;36.41;100936.08;83882;287;24044;-62
2023/08/17 07:12:14;;;;;;;2.70;0.50;;;;;;;31.05;36.29;100925.23;83892;287;136190;-59
2023/08/17 07:14:16;;;;;;;4.50;0.30;;;;;;;31.04;36.49;100923.52;83921;286;21558;-60
2023/08/17 07:16:20;;;;;;;1.20;0.30;;;;;;;30.97;36.63;100925.66;83810;282;138026;-55
2023/08/17 07:18:22;;;;;;;1.30;0.20;;;;;;;30.81;36.61;100920.28;84008;287;22580;-60
2023/08/17 07:20:23;;;;;;;4.50;0.30;;;;;;;30.56;36.92;100926.67;83813;288;137468;-61
2023/08/17 07:22:25;;;;;;;0.60;0.40;;;;;;;30.37;37.36;100919.16;83974;287;22719;-60
2023/08/17 07:24:27;;;;;;;0.50;0.20;;;;;;;30.19;37.62;100917.42;83854;287;137600;-65
2023/08/17 07:26:29;;;;;;;1.60;0.30;;;;;;;30.05;38.11;100923.48;84046;287;22565;-61
2023/08/17 07:28:31;;;;;;;1.00;0.10;;;;;;;29.92;37.93;100921.10;83945;287;136304;-61
2023/08/17 07:30:32;;;;;;;0.70;0.30;;;;;;;29.76;38.04;100917.71;83950;287;24121;-60
2023/08/17 07:32:35;;;;;;;3.20;0.30;;;;;;;29.56;38.52;100924.54;83833;288;137295;-62
2023/08/17 07:34:37;;;;;;;1.10;0.10;;;;;;;29.31;38.71;100924.86;83851;287;22572;-60
2023/08/17 07:36:38;;;;;;;1.20;0.20;;;;;;;29.07;39.51;100923.30;83808;286;135942;-60
2023/08/17 07:38:40;;;;;;;1.10;0.20;;;;;;;28.88;40.25;100914.96;83959;287;22929;-61
2023/08/17 07:40:43;;;;;;;3.10;0.30;;;;;;;28.74;40.21;100916.05;83907;286;136542;-63
2023/08/17 07:42:46;;;;;;;0.40;0.30;;;;;;;28.62;40.54;100916.83;84123;287;22559;-59
2023/08/17 07:44:48;;;;;;;0.30;0.30;;;;;;;28.50;40.87;100921.75;83831;287;136328;-59
2023/08/17 07:46:49;;;;;;;8.50;0.20;;;;;;;28.35;41.15;100926.90;83926;286;22650;-60
2023/08/17 07:48:51;;;;;;;1.90;0.70;;;;;;;28.18;41.30;100922.09;83860;287;136749;-62
2023/08/17 07:50:53;;;;;;;1.20;0.60;;;;;;;28.04;42.31;100916.89;83963;287;22567;-57
2023/08/17 07:52:55;;;;;;;1.50;0.30;;;;;;;27.90;42.81;100922.13;83876;287;137832;-62
2023/08/17 07:54:57;;;;;;;0.90;0.30;;;;;;;27.84;43.03;100929.73;83887;287;24101;-59
2023/08/17 07:56:59;;;;;;;7.10;0.40;;;;;;;27.83;42.70;100927.71;83845;287;136561;-58
2023/08/17 07:59:01;;;;;;;2.00;0.50;;;;;;;27.81;42.84;100921.21;83928;287;22637;-61
2023/08/17 08:01:03;;;;;;;2.60;0.60;;;;;;;27.81;43.15;100923.68;83742;287;136325;-59
2023/08/17 08:03:06;;;;;;;2.00;0.40;;;;;;;27.84;43.21;100926.72;83914;286;25225;-58
2023/08/17 08:05:08;;;;;;;1.40;0.40;;;;;;;27.86;43.29;100933.53;83829;288;136050;-55
2023/08/17 08:07:10;;;;;;;1.80;0.30;;;;;;;27.89;42.93;100928.92;84099;284;25406;-54
2023/08/17 08:09:13;;;;;;;2.20;0.50;;;;;;;27.95;42.91;100930.02;83884;284;138942;-57
2023/08/17 08:11:17;;;;;;;;;;;;;;;27.96;43.03;100923.38;84149;285;22551;-59
2023/08/17 08:13:19;;;;;;;0.40;0.10;;;;;;;28.00;42.76;100923.99;84074;284;123142;-59
2023/08/17 08:15:20;;;;;;;0.30;0.20;;;;;;;27.98;41.88;100933.51;84042;284;22787;-57
2023/08/17 08:17:22;;;;;;;5.60;0.20;;;;;;;27.95;41.68;100933.52;83922;284;136126;-58
2023/08/17 08:19:24;;;;;;;0.70;0.20;;;;;;;27.91;42.15;100919.66;84029;284;22553;-58
2023/08/17 08:21:28;;;;;;;0.70;0.20;;;;;;;27.87;42.50;100922.79;83994;284;136258;-58
2023/08/17 08:23:29;;;;;;;2.10;0.20;;;;;;;27.83;42.67;100923.55;84016;284;25287;-57
2023/08/17 08:25:31;;;;;;;1.90;0.20;;;;;;;27.84;43.00;100916.96;83921;283;136254;-61
2023/08/17 08:27:33;;;;;;;1.20;0.60;;;;;;;27.82;43.18;100904.23;84000;284;22813;-64
2023/08/17 08:29:35;;;;;;;0.50;0.10;;;;;;;27.90;43.23;100921.42;83736;284;136417;-58
2023/08/17 08:31:37;;;;;;;1.20;0.30;;;;;;;27.92;43.18;100918.23;83865;284;24102;-58
2023/08/17 08:33:39;;;;;;;0.80;0.20;;;;;;;27.94;43.26;100911.80;83713;284;136460;-59
2023/08/17 08:35:41;;;;;;;1.70;0.40;;;;;;;27.98;43.29;100926.31;83852;286;24153;-62
2023/08/17 08:37:43;;;;;;;3.30;0.10;;;;;;;28.02;43.30;100920.97;83827;285;136118;-59
2023/08/17 08:39:50;;;;;;;2.30;0.20;;;;;;;28.01;43.14;100914.89;83864;285;25258;-59
2023/08/17 08:41:52;;;;;;;2.60;0.60;;;;;;;28.02;43.01;100920.62;85858;287;135989;-61
2023/08/17 08:43:54;;;;;;;3.70;0.50;;;;;;;28.03;42.77;100909.87;84046;284;25413;-61
2023/08/17 08:45:58;;;;;;;0.90;0.20;;;;;;;28.07;43.03;100911.75;84085;283;136168;-62
2023/08/17 08:48:01;;;;;;;1.20;0.40;;;;;;;28.15;42.71;100918.23;85877;284;24217;-60
2023/08/17 08:50:04;;;;;;;0.60;0.20;;;;;;;28.22;42.37;100909.33;83801;281;135669;-62
2023/08/17 08:52:09;;;;;;;3.70;0.30;;;;;;;28.24;42.54;100909.40;83813;283;137794;-61
2023/08/17 08:54:17;;;;;;;0.90;0.40;;;;;;;28.24;42.45;100918.29;83998;285;22981;-60
2023/08/17 08:56:23;;;;;;;0.70;0.20;;;;;;;28.21;42.50;100911.70;84431;286;135951;-64
2023/08/17 08:58:26;;;;;;;0.30;0.30;;;;;;;28.19;42.83;100910.89;84235;283;25138;-63
2023/08/17 09:00:29;;;;;;;0.10;0.10;;;;;;;28.19;43.04;100918.73;83857;284;136314;-60
2023/08/17 09:02:32;;;;;;;1.10;0.20;;;;;;;28.16;43.17;100915.80;83994;283;22649;-61
2023/08/17 09:04:33;;;;;;;8.70;0.30;;;;;;;28.10;43.10;100920.77;84001;283;136502;-60
2023/08/17 09:06:36;;;;;;;1.30;0.30;;;;;;;28.01;42.86;100916.31;84085;284;25134;-61
2023/08/17 09:08:38;;;;;;;3.10;0.50;;;;;;;27.92;43.09;100919.93;83927;284;135413;-62
2023/08/17 09:10:41;;;;;;;1.20;0.20;;;;;;;27.92;43.43;100912.09;84318;284;22626;-65
2023/08/17 09:12:46;;;;;;;1.40;0.20;;;;;;;27.92;43.31;100913.73;83900;285;136478;-63
2023/08/17 09:14:50;;;;;;;0.10;0.10;;;;;;;27.89;43.41;100923.07;84096;284;23717;-58
2023/08/17 09:16:58;;;;;;;0.80;0.20;;;;;;;27.86;43.71;100910.70;83975;284;136884;-61
2023/08/17 09:19:01;;;;;;;3.00;0.50;;;;;;;27.82;44.05;100904.39;84388;285;22637;-62
2023/08/17 09:21:04;;;;;;;1.60;0.40;;;;;;;27.79;44.13;100903.55;83876;285;136382;-59
2023/08/17 09:23:14;;;;;;;1.00;0.30;;;;;;;27.79;44.18;100910.27;84111;284;23879;-59
2023/08/17 09:25:23;;;;;;;2.50;0.30;;;;;;;27.79;44.20;100908.43;84012;284;137587;-61
2023/08/17 09:27:25;;;;;;;2.60;0.40;;;;;;;27.76;43.93;100908.77;85200;285;22553;-59
2023/08/17 09:29:26;;;;;;;2.70;0.50;;;;;;;27.72;43.58;100908.59;83928;285;136378;-62
2023/08/17 09:31:32;;;;;;;0.60;0.20;;;;;;;27.61;43.85;100909.48;83996;285;25159;-62
2023/08/17 09:33:35;;;;;;;1.60;0.60;;;;;;;27.66;43.50;100901.42;83954;284;136449;-61
2023/08/17 09:35:37;;;;;;;1.50;0.40;;;;;;;27.72;43.29;100894.53;84034;284;26192;-64
2023/08/17 09:37:38;;;;;;;0.30;0.20;;;;;;;27.73;43.57;100900.59;83964;284;137616;-63